sensor_id;sensor_type;location;lat;lon;timestamp;temperature;humidity
37886;DHT22;23726;52.520;13.434;2022-12-05T00:01:23;20.50;47.10
37886;DHT22;23726;52.520;13.434;2022-12-05T00:03:54;20.50;47.20
37886;DHT22;23726;52.520;13.434;2022-12-05T00:06:22;20.50;47.10
37886;DHT22;23726;52.520;13.434;2022-12-05T00:08:49;20.40;47.10
37886;DHT22;23726;52.520;13.434;2022-12-05T00:11:17;20.50;47.20
37886;DHT22;23726;52.520;13.434;2022-12-05T00:13:44;20.40;47.10
37886;DHT22;23726;52.520;13.434;2022-12-05T00:16:15;20.50;47.10
37886;DHT22;23726;52.520;13.434;2022-12-05T00:18:41;20.50;47.60
37886;DHT22;23726;52.520;13.434;2022-12-05T00:21:13;20.50;47.10
37886;DHT22;23726;52.520;13.434;2022-12-05T00:23:39;20.50;47.10
37886;DHT22;23726;52.520;13.434;2022-12-05T00:26:06;20.50;47.10
37886;DHT22;23726;52.520;13.434;2022-12-05T00:28:32;20.50;47.10
37886;DHT22;23726;52.520;13.434;2022-12-05T00:31:09;20.50;47.20
37886;DHT22;23726;52.520;13.434;2022-12-05T00:33:35;20.50;47.10
37886;DHT22;23726;52.520;13.434;2022-12-05T00:36:06;20.50;47.10
37886;DHT22;23726;52.520;13.434;2022-12-05T00:38:33;20.50;47.10
37886;DHT22;23726;52.520;13.434;2022-12-05T00:41:03;20.40;47.10
37886;DHT22;23726;52.520;13.434;2022-12-05T00:43:29;20.40;47.10
37886;DHT22;23726;52.520;13.434;2022-12-05T00:45:58;20.50;47.40
37886;DHT22;23726;52.520;13.434;2022-12-05T00:48:24;20.50;47.10
37886;DHT22;23726;52.520;13.434;2022-12-05T00:50:50;20.50;47.10
37886;DHT22;23726;52.520;13.434;2022-12-05T00:53:15;20.40;47.10
37886;DHT22;23726;52.520;13.434;2022-12-05T00:55:42;20.50;47.10
37886;DHT22;23726;52.520;13.434;2022-12-05T00:58:07;20.50;47.10
37886;DHT22;23726;52.520;13.434;2022-12-05T01:00:34;20.50;47.20
37886;DHT22;23726;52.520;13.434;2022-12-05T01:02:59;20.40;47.10
37886;DHT22;23726;52.520;13.434;2022-12-05T01:05:25;20.40;47.10
37886;DHT22;23726;52.520;13.434;2022-12-05T01:07:51;20.50;47.10
37886;DHT22;23726;52.520;13.434;2022-12-05T01:10:16;20.40;47.10
37886;DHT22;23726;52.520;13.434;2022-12-05T01:12:43;20.50;47.10
37886;DHT22;23726;52.520;13.434;2022-12-05T01:15:09;20.40;47.10
37886;DHT22;23726;52.520;13.434;2022-12-05T01:17:35;20.50;47.10
37886;DHT22;23726;52.520;13.434;2022-12-05T01:20:02;20.40;47.00
37886;DHT22;23726;52.520;13.434;2022-12-05T01:22:28;20.50;47.10
37886;DHT22;23726;52.520;13.434;2022-12-05T01:24:53;20.40;47.10
37886;DHT22;23726;52.520;13.434;2022-12-05T01:27:19;20.40;47.00
37886;DHT22;23726;52.520;13.434;2022-12-05T01:29:44;20.50;47.10
37886;DHT22;23726;52.520;13.434;2022-12-05T01:32:11;20.50;47.10
37886;DHT22;23726;52.520;13.434;2022-12-05T01:34:36;20.50;47.10
37886;DHT22;23726;52.520;13.434;2022-12-05T01:37:02;20.50;47.10
37886;DHT22;23726;52.520;13.434;2022-12-05T01:39:28;20.50;47.10
37886;DHT22;23726;52.520;13.434;2022-12-05T01:41:53;20.50;47.10
37886;DHT22;23726;52.520;13.434;2022-12-05T01:46:50;20.40;47.10
37886;DHT22;23726;52.520;13.434;2022-12-05T01:49:26;20.40;47.10
37886;DHT22;23726;52.520;13.434;2022-12-05T01:51:55;20.50;47.10
37886;DHT22;23726;52.520;13.434;2022-12-05T01:54:22;20.40;47.10
37886;DHT22;23726;52.520;13.434;2022-12-05T01:57:09;20.50;47.10
37886;DHT22;23726;52.520;13.434;2022-12-05T01:59:38;20.50;47.10
37886;DHT22;23726;52.520;13.434;2022-12-05T02:02:06;20.40;47.10
37886;DHT22;23726;52.520;13.434;2022-12-05T02:04:36;20.40;47.10
37886;DHT22;23726;52.520;13.434;2022-12-05T02:07:03;20.40;47.10
37886;DHT22;23726;52.520;13.434;2022-12-05T02:09:28;20.40;47.10
37886;DHT22;23726;52.520;13.434;2022-12-05T02:12:00;20.40;47.10
37886;DHT22;23726;52.520;13.434;2022-12-05T02:17:38;20.50;47.10
37886;DHT22;23726;52.520;13.434;2022-12-05T02:23:09;20.40;47.10
37886;DHT22;23726;52.520;13.434;2022-12-05T02:29:02;20.40;47.10
37886;DHT22;23726;52.520;13.434;2022-12-05T02:31:38;20.40;47.20
37886;DHT22;23726;52.520;13.434;2022-12-05T02:34:15;20.40;47.20
37886;DHT22;23726;52.520;13.434;2022-12-05T02:42:17;20.40;47.10
37886;DHT22;23726;52.520;13.434;2022-12-05T02:44:51;20.40;47.10
37886;DHT22;23726;52.520;13.434;2022-12-05T02:47:22;20.40;47.10
37886;DHT22;23726;52.520;13.434;2022-12-05T02:49:50;20.40;47.20
37886;DHT22;23726;52.520;13.434;2022-12-05T02:52:17;20.40;47.10
37886;DHT22;23726;52.520;13.434;2022-12-05T02:54:45;20.40;47.20
37886;DHT22;23726;52.520;13.434;2022-12-05T02:57:12;20.40;47.10
37886;DHT22;23726;52.520;13.434;2022-12-05T02:59:40;20.40;47.10
37886;DHT22;23726;52.520;13.434;2022-12-05T03:02:25;20.40;47.10
37886;DHT22;23726;52.520;13.434;2022-12-05T03:04:52;20.50;47.70
37886;DHT22;23726;52.520;13.434;2022-12-05T03:07:19;20.40;47.10
37886;DHT22;23726;52.520;13.434;2022-12-05T03:09:53;20.40;47.10
37886;DHT22;23726;52.520;13.434;2022-12-05T03:12:24;20.40;47.10
37886;DHT22;23726;52.520;13.434;2022-12-05T03:15:08;20.40;47.10
37886;DHT22;23726;52.520;13.434;2022-12-05T03:17:40;20.40;47.10
37886;DHT22;23726;52.520;13.434;2022-12-05T03:20:14;20.40;47.10
37886;DHT22;23726;52.520;13.434;2022-12-05T03:23:11;20.40;47.10
37886;DHT22;23726;52.520;13.434;2022-12-05T03:31:48;20.40;47.10
37886;DHT22;23726;52.520;13.434;2022-12-05T03:34:21;20.40;47.70
37886;DHT22;23726;52.520;13.434;2022-12-05T03:36:53;20.40;47.20
37886;DHT22;23726;52.520;13.434;2022-12-05T03:39:32;20.40;47.20
37886;DHT22;23726;52.520;13.434;2022-12-05T03:42:12;20.40;47.10
37886;DHT22;23726;52.520;13.434;2022-12-05T03:44:43;20.40;47.10
37886;DHT22;23726;52.520;13.434;2022-12-05T03:49:49;20.40;47.10
37886;DHT22;23726;52.520;13.434;2022-12-05T03:52:24;20.40;47.20
37886;DHT22;23726;52.520;13.434;2022-12-05T03:55:01;20.40;47.60
37886;DHT22;23726;52.520;13.434;2022-12-05T03:57:45;20.40;47.10
37886;DHT22;23726;52.520;13.434;2022-12-05T04:00:20;20.40;47.20
37886;DHT22;23726;52.520;13.434;2022-12-05T04:03:06;20.40;47.60
37886;DHT22;23726;52.520;13.434;2022-12-05T04:05:46;20.40;47.60
37886;DHT22;23726;52.520;13.434;2022-12-05T04:08:18;20.40;47.10
37886;DHT22;23726;52.520;13.434;2022-12-05T04:10:47;20.40;47.10
37886;DHT22;23726;52.520;13.434;2022-12-05T04:16:24;20.40;47.10
37886;DHT22;23726;52.520;13.434;2022-12-05T04:21:45;20.40;47.20
37886;DHT22;23726;52.520;13.434;2022-12-05T04:24:16;20.40;47.10
37886;DHT22;23726;52.520;13.434;2022-12-05T04:27:12;20.40;47.20
37886;DHT22;23726;52.520;13.434;2022-12-05T04:30:05;20.40;47.20
37886;DHT22;23726;52.520;13.434;2022-12-05T04:32:45;20.40;47.10
37886;DHT22;23726;52.520;13.434;2022-12-05T04:35:22;20.40;47.10
37886;DHT22;23726;52.520;13.434;2022-12-05T04:37:52;20.40;47.10
37886;DHT22;23726;52.520;13.434;2022-12-05T04:40:24;20.40;47.20
37886;DHT22;23726;52.520;13.434;2022-12-05T04:42:52;20.40;47.10
37886;DHT22;23726;52.520;13.434;2022-12-05T04:45:20;20.40;47.10
37886;DHT22;23726;52.520;13.434;2022-12-05T04:47:50;20.40;47.10
37886;DHT22;23726;52.520;13.434;2022-12-05T04:50:17;20.40;47.10
37886;DHT22;23726;52.520;13.434;2022-12-05T04:52:46;20.40;47.10
37886;DHT22;23726;52.520;13.434;2022-12-05T04:55:21;20.40;47.10
37886;DHT22;23726;52.520;13.434;2022-12-05T05:00:22;20.40;47.10
37886;DHT22;23726;52.520;13.434;2022-12-05T05:02:58;20.40;47.10
37886;DHT22;23726;52.520;13.434;2022-12-05T05:05:25;20.40;47.10
37886;DHT22;23726;52.520;13.434;2022-12-05T05:07:53;20.40;47.10
37886;DHT22;23726;52.520;13.434;2022-12-05T05:10:24;20.40;47.10
37886;DHT22;23726;52.520;13.434;2022-12-05T05:12:52;20.40;47.10
37886;DHT22;23726;52.520;13.434;2022-12-05T05:15:18;20.40;47.10
37886;DHT22;23726;52.520;13.434;2022-12-05T05:17:44;20.40;47.10
37886;DHT22;23726;52.520;13.434;2022-12-05T05:20:10;20.40;47.60
37886;DHT22;23726;52.520;13.434;2022-12-05T05:22:52;20.40;47.10
37886;DHT22;23726;52.520;13.434;2022-12-05T05:25:18;20.40;47.10
37886;DHT22;23726;52.520;13.434;2022-12-05T05:27:51;20.40;47.10
37886;DHT22;23726;52.520;13.434;2022-12-05T05:30:18;20.40;47.10
37886;DHT22;23726;52.520;13.434;2022-12-05T05:32:45;20.40;47.10
37886;DHT22;23726;52.520;13.434;2022-12-05T05:35:11;20.40;47.10
37886;DHT22;23726;52.520;13.434;2022-12-05T05:37:37;20.40;47.10
37886;DHT22;23726;52.520;13.434;2022-12-05T05:40:04;20.40;47.10
37886;DHT22;23726;52.520;13.434;2022-12-05T05:42:30;20.40;47.10
37886;DHT22;23726;52.520;13.434;2022-12-05T05:44:56;20.40;47.10
37886;DHT22;23726;52.520;13.434;2022-12-05T05:47:21;20.40;47.10
37886;DHT22;23726;52.520;13.434;2022-12-05T05:49:47;20.40;47.10
37886;DHT22;23726;52.520;13.434;2022-12-05T05:52:13;20.40;47.10
37886;DHT22;23726;52.520;13.434;2022-12-05T05:54:39;20.40;47.10
37886;DHT22;23726;52.520;13.434;2022-12-05T05:57:05;20.40;47.10
37886;DHT22;23726;52.520;13.434;2022-12-05T05:59:31;20.40;47.10
37886;DHT22;23726;52.520;13.434;2022-12-05T06:01:56;20.40;47.10
37886;DHT22;23726;52.520;13.434;2022-12-05T06:04:22;20.40;47.00
37886;DHT22;23726;52.520;13.434;2022-12-05T06:06:47;20.40;47.10
37886;DHT22;23726;52.520;13.434;2022-12-05T06:09:13;20.40;47.10
37886;DHT22;23726;52.520;13.434;2022-12-05T06:11:38;20.40;47.60
37886;DHT22;23726;52.520;13.434;2022-12-05T06:14:04;20.40;47.10
37886;DHT22;23726;52.520;13.434;2022-12-05T06:16:30;20.40;47.10
37886;DHT22;23726;52.520;13.434;2022-12-05T06:18:56;20.40;47.10
37886;DHT22;23726;52.520;13.434;2022-12-05T06:21:22;20.40;47.10
37886;DHT22;23726;52.520;13.434;2022-12-05T06:23:50;20.40;47.10
37886;DHT22;23726;52.520;13.434;2022-12-05T06:26:18;20.40;47.00
37886;DHT22;23726;52.520;13.434;2022-12-05T06:28:45;20.40;47.10
37886;DHT22;23726;52.520;13.434;2022-12-05T06:31:16;20.40;47.10
37886;DHT22;23726;52.520;13.434;2022-12-05T06:33:42;20.40;47.00
37886;DHT22;23726;52.520;13.434;2022-12-05T06:36:15;20.40;47.00
37886;DHT22;23726;52.520;13.434;2022-12-05T06:38:42;20.40;47.00
37886;DHT22;23726;52.520;13.434;2022-12-05T06:41:10;20.40;47.10
37886;DHT22;23726;52.520;13.434;2022-12-05T06:43:38;20.40;47.10
37886;DHT22;23726;52.520;13.434;2022-12-05T06:46:08;20.40;47.10
37886;DHT22;23726;52.520;13.434;2022-12-05T06:48:34;20.40;47.10
37886;DHT22;23726;52.520;13.434;2022-12-05T06:51:01;20.40;47.10
37886;DHT22;23726;52.520;13.434;2022-12-05T06:53:27;20.40;47.10
37886;DHT22;23726;52.520;13.434;2022-12-05T06:55:58;20.40;47.60
37886;DHT22;23726;52.520;13.434;2022-12-05T06:58:24;20.40;47.00
37886;DHT22;23726;52.520;13.434;2022-12-05T07:00:51;20.40;47.10
37886;DHT22;23726;52.520;13.434;2022-12-05T07:03:36;20.40;47.10
37886;DHT22;23726;52.520;13.434;2022-12-05T07:06:03;20.40;47.10
37886;DHT22;23726;52.520;13.434;2022-12-05T07:08:30;20.40;47.10
37886;DHT22;23726;52.520;13.434;2022-12-05T07:10:56;20.40;47.10
37886;DHT22;23726;52.520;13.434;2022-12-05T07:13:22;20.40;47.10
37886;DHT22;23726;52.520;13.434;2022-12-05T07:15:48;20.40;47.10
37886;DHT22;23726;52.520;13.434;2022-12-05T07:18:16;20.40;47.10
37886;DHT22;23726;52.520;13.434;2022-12-05T07:20:42;20.40;47.10
37886;DHT22;23726;52.520;13.434;2022-12-05T07:23:09;20.40;47.10
37886;DHT22;23726;52.520;13.434;2022-12-05T07:25:39;20.40;47.60
37886;DHT22;23726;52.520;13.434;2022-12-05T07:28:05;20.40;47.10
37886;DHT22;23726;52.520;13.434;2022-12-05T07:30:30;20.40;47.10
37886;DHT22;23726;52.520;13.434;2022-12-05T07:32:56;20.40;47.10
37886;DHT22;23726;52.520;13.434;2022-12-05T07:35:23;20.40;47.10
37886;DHT22;23726;52.520;13.434;2022-12-05T07:37:48;20.40;47.10
37886;DHT22;23726;52.520;13.434;2022-12-05T07:40:14;20.40;47.10
37886;DHT22;23726;52.520;13.434;2022-12-05T07:42:39;20.40;47.10
37886;DHT22;23726;52.520;13.434;2022-12-05T07:45:06;20.40;47.10
37886;DHT22;23726;52.520;13.434;2022-12-05T07:47:32;20.40;47.00
37886;DHT22;23726;52.520;13.434;2022-12-05T07:49:57;20.40;47.10
37886;DHT22;23726;52.520;13.434;2022-12-05T07:52:23;20.40;47.10
37886;DHT22;23726;52.520;13.434;2022-12-05T07:54:49;20.40;47.10
37886;DHT22;23726;52.520;13.434;2022-12-05T07:57:14;20.40;47.10
37886;DHT22;23726;52.520;13.434;2022-12-05T07:59:40;20.40;47.10
37886;DHT22;23726;52.520;13.434;2022-12-05T08:02:05;20.40;47.00
37886;DHT22;23726;52.520;13.434;2022-12-05T08:04:31;20.40;47.00
37886;DHT22;23726;52.520;13.434;2022-12-05T08:06:56;20.40;47.10
37886;DHT22;23726;52.520;13.434;2022-12-05T08:09:22;20.40;47.10
37886;DHT22;23726;52.520;13.434;2022-12-05T08:11:48;20.40;47.10
37886;DHT22;23726;52.520;13.434;2022-12-05T08:14:14;20.40;47.10
37886;DHT22;23726;52.520;13.434;2022-12-05T08:16:40;20.40;47.10
37886;DHT22;23726;52.520;13.434;2022-12-05T08:19:09;20.40;47.10
37886;DHT22;23726;52.520;13.434;2022-12-05T08:21:37;20.40;47.10
37886;DHT22;23726;52.520;13.434;2022-12-05T08:24:04;20.40;47.10
37886;DHT22;23726;52.520;13.434;2022-12-05T08:26:30;20.40;47.10
37886;DHT22;23726;52.520;13.434;2022-12-05T08:29:06;20.40;47.60
37886;DHT22;23726;52.520;13.434;2022-12-05T08:31:34;20.40;47.60
37886;DHT22;23726;52.520;13.434;2022-12-05T08:34:00;20.40;47.10
37886;DHT22;23726;52.520;13.434;2022-12-05T08:36:28;20.40;47.10
37886;DHT22;23726;52.520;13.434;2022-12-05T08:39:00;20.40;47.10
37886;DHT22;23726;52.520;13.434;2022-12-05T08:41:26;20.40;47.10
37886;DHT22;23726;52.520;13.434;2022-12-05T08:43:55;20.40;47.10
37886;DHT22;23726;52.520;13.434;2022-12-05T08:46:21;20.40;47.10
37886;DHT22;23726;52.520;13.434;2022-12-05T08:48:47;20.40;47.10
37886;DHT22;23726;52.520;13.434;2022-12-05T08:51:13;20.40;47.10
37886;DHT22;23726;52.520;13.434;2022-12-05T08:53:39;20.40;47.60
37886;DHT22;23726;52.520;13.434;2022-12-05T08:56:07;20.40;47.10
37886;DHT22;23726;52.520;13.434;2022-12-05T08:58:33;20.40;47.10
37886;DHT22;23726;52.520;13.434;2022-12-05T09:01:08;20.40;47.10
37886;DHT22;23726;52.520;13.434;2022-12-05T09:03:34;20.40;47.10
37886;DHT22;23726;52.520;13.434;2022-12-05T09:06:10;20.40;47.10
37886;DHT22;23726;52.520;13.434;2022-12-05T09:08:38;20.40;47.10
37886;DHT22;23726;52.520;13.434;2022-12-05T09:11:15;20.40;47.10
37886;DHT22;23726;52.520;13.434;2022-12-05T09:13:41;20.40;47.10
37886;DHT22;23726;52.520;13.434;2022-12-05T09:16:13;20.40;47.10
37886;DHT22;23726;52.520;13.434;2022-12-05T09:18:41;20.40;47.10
37886;DHT22;23726;52.520;13.434;2022-12-05T09:21:11;20.40;47.10
37886;DHT22;23726;52.520;13.434;2022-12-05T09:23:37;20.40;47.10
37886;DHT22;23726;52.520;13.434;2022-12-05T09:26:04;20.40;47.10
37886;DHT22;23726;52.520;13.434;2022-12-05T09:28:31;20.40;47.10
37886;DHT22;23726;52.520;13.434;2022-12-05T09:31:01;20.40;47.10
37886;DHT22;23726;52.520;13.434;2022-12-05T09:33:29;20.40;47.10
37886;DHT22;23726;52.520;13.434;2022-12-05T09:35:55;20.40;47.10
37886;DHT22;23726;52.520;13.434;2022-12-05T09:38:21;20.40;47.10
37886;DHT22;23726;52.520;13.434;2022-12-05T09:41:02;20.40;47.10
37886;DHT22;23726;52.520;13.434;2022-12-05T09:46:25;20.40;47.10
37886;DHT22;23726;52.520;13.434;2022-12-05T09:48:54;20.40;47.10
37886;DHT22;23726;52.520;13.434;2022-12-05T09:51:22;20.40;47.10
37886;DHT22;23726;52.520;13.434;2022-12-05T09:53:49;20.40;47.10
37886;DHT22;23726;52.520;13.434;2022-12-05T09:56:26;20.40;47.10
37886;DHT22;23726;52.520;13.434;2022-12-05T09:58:55;20.40;47.10
37886;DHT22;23726;52.520;13.434;2022-12-05T10:01:39;20.40;47.10
37886;DHT22;23726;52.520;13.434;2022-12-05T10:06:53;20.40;47.10
37886;DHT22;23726;52.520;13.434;2022-12-05T10:09:33;20.40;47.10
37886;DHT22;23726;52.520;13.434;2022-12-05T10:12:13;20.40;47.10
37886;DHT22;23726;52.520;13.434;2022-12-05T10:15:03;20.40;47.20
37886;DHT22;23726;52.520;13.434;2022-12-05T10:17:34;20.40;47.20
37886;DHT22;23726;52.520;13.434;2022-12-05T10:22:46;20.40;47.20
37886;DHT22;23726;52.520;13.434;2022-12-05T10:25:13;20.40;47.20
37886;DHT22;23726;52.520;13.434;2022-12-05T10:27:52;20.40;47.20
37886;DHT22;23726;52.520;13.434;2022-12-05T10:30:24;20.40;47.20
37886;DHT22;23726;52.520;13.434;2022-12-05T10:33:00;20.40;47.20
37886;DHT22;23726;52.520;13.434;2022-12-05T10:35:35;20.40;47.20
37886;DHT22;23726;52.520;13.434;2022-12-05T10:38:37;20.40;47.20
37886;DHT22;23726;52.520;13.434;2022-12-05T10:41:06;20.40;47.20
37886;DHT22;23726;52.520;13.434;2022-12-05T10:43:33;20.40;47.20
37886;DHT22;23726;52.520;13.434;2022-12-05T10:46:00;20.40;47.20
37886;DHT22;23726;52.520;13.434;2022-12-05T10:48:26;20.40;47.20
37886;DHT22;23726;52.520;13.434;2022-12-05T10:50:57;20.40;47.20
37886;DHT22;23726;52.520;13.434;2022-12-05T10:53:47;20.40;47.20
37886;DHT22;23726;52.520;13.434;2022-12-05T10:59:05;20.40;46.90
37886;DHT22;23726;52.520;13.434;2022-12-05T11:01:31;20.40;46.50
37886;DHT22;23726;52.520;13.434;2022-12-05T11:03:59;20.40;45.20
37886;DHT22;23726;52.520;13.434;2022-12-05T11:06:27;20.30;45.10
37886;DHT22;23726;52.520;13.434;2022-12-05T11:08:56;20.30;43.80
37886;DHT22;23726;52.520;13.434;2022-12-05T11:11:26;20.20;42.80
37886;DHT22;23726;52.520;13.434;2022-12-05T11:14:21;20.20;43.00
37886;DHT22;23726;52.520;13.434;2022-12-05T11:16:56;20.10;42.10
37886;DHT22;23726;52.520;13.434;2022-12-05T11:19:35;20.10;42.70
37886;DHT22;23726;52.520;13.434;2022-12-05T11:22:01;20.20;43.10
37886;DHT22;23726;52.520;13.434;2022-12-05T11:24:33;20.20;43.00
37886;DHT22;23726;52.520;13.434;2022-12-05T11:27:33;20.20;43.20
37886;DHT22;23726;52.520;13.434;2022-12-05T11:32:31;20.30;43.00
37886;DHT22;23726;52.520;13.434;2022-12-05T11:35:08;20.30;43.70
37886;DHT22;23726;52.520;13.434;2022-12-05T11:52:30;20.30;43.00
37886;DHT22;23726;52.520;13.434;2022-12-05T11:57:56;20.30;43.00
37886;DHT22;23726;52.520;13.434;2022-12-05T12:00:29;20.40;43.60
37886;DHT22;23726;52.520;13.434;2022-12-05T12:03:18;20.40;43.50
37886;DHT22;23726;52.520;13.434;2022-12-05T12:05:59;20.30;43.60
37886;DHT22;23726;52.520;13.434;2022-12-05T12:08:49;20.30;43.60
37886;DHT22;23726;52.520;13.434;2022-12-05T12:11:40;20.40;43.60
37886;DHT22;23726;52.520;13.434;2022-12-05T12:19:56;20.40;43.60
37886;DHT22;23726;52.520;13.434;2022-12-05T12:25:41;20.40;43.60
37886;DHT22;23726;52.520;13.434;2022-12-05T12:33:45;20.30;43.60
37886;DHT22;23726;52.520;13.434;2022-12-05T12:36:21;20.40;43.60
37886;DHT22;23726;52.520;13.434;2022-12-05T12:39:10;20.40;43.60
37886;DHT22;23726;52.520;13.434;2022-12-05T12:47:03;20.40;43.70
37886;DHT22;23726;52.520;13.434;2022-12-05T12:52:16;20.40;43.40
37886;DHT22;23726;52.520;13.434;2022-12-05T13:03:26;20.40;43.30
37886;DHT22;23726;52.520;13.434;2022-12-05T13:05:59;20.40;43.30
37886;DHT22;23726;52.520;13.434;2022-12-05T13:11:40;20.40;43.90
37886;DHT22;23726;52.520;13.434;2022-12-05T13:14:11;20.40;43.50
37886;DHT22;23726;52.520;13.434;2022-12-05T13:16:43;20.50;43.50
37886;DHT22;23726;52.520;13.434;2022-12-05T13:19:30;20.50;43.60
37886;DHT22;23726;52.520;13.434;2022-12-05T13:22:02;20.50;43.70
37886;DHT22;23726;52.520;13.434;2022-12-05T13:24:29;20.50;43.70
37886;DHT22;23726;52.520;13.434;2022-12-05T13:27:00;20.50;43.60
37886;DHT22;23726;52.520;13.434;2022-12-05T13:29:37;20.50;43.70
37886;DHT22;23726;52.520;13.434;2022-12-05T13:32:05;20.50;43.70
37886;DHT22;23726;52.520;13.434;2022-12-05T13:37:25;20.60;43.90
37886;DHT22;23726;52.520;13.434;2022-12-05T13:43:07;20.60;43.80
37886;DHT22;23726;52.520;13.434;2022-12-05T13:45:33;20.60;43.80
37886;DHT22;23726;52.520;13.434;2022-12-05T13:50:47;20.60;43.80
37886;DHT22;23726;52.520;13.434;2022-12-05T13:56:01;20.70;43.70
37886;DHT22;23726;52.520;13.434;2022-12-05T14:09:49;20.70;43.80
37886;DHT22;23726;52.520;13.434;2022-12-05T14:17:23;20.80;43.90
37886;DHT22;23726;52.520;13.434;2022-12-05T14:19:53;20.70;44.00
37886;DHT22;23726;52.520;13.434;2022-12-05T14:22:39;20.70;44.20
37886;DHT22;23726;52.520;13.434;2022-12-05T14:27:47;20.80;44.40
37886;DHT22;23726;52.520;13.434;2022-12-05T14:30:40;20.80;44.30
37886;DHT22;23726;52.520;13.434;2022-12-05T14:33:14;20.80;44.30
37886;DHT22;23726;52.520;13.434;2022-12-05T14:35:45;20.80;44.40
37886;DHT22;23726;52.520;13.434;2022-12-05T14:38:29;20.90;44.30
37886;DHT22;23726;52.520;13.434;2022-12-05T14:41:25;20.90;44.30
37886;DHT22;23726;52.520;13.434;2022-12-05T14:43:54;20.90;44.30
37886;DHT22;23726;52.520;13.434;2022-12-05T14:46:29;20.80;44.20
37886;DHT22;23726;52.520;13.434;2022-12-05T14:48:56;20.80;44.70
37886;DHT22;23726;52.520;13.434;2022-12-05T14:54:05;20.80;44.30
37886;DHT22;23726;52.520;13.434;2022-12-05T14:56:37;20.80;44.30
37886;DHT22;23726;52.520;13.434;2022-12-05T14:59:25;20.80;44.20
37886;DHT22;23726;52.520;13.434;2022-12-05T15:01:56;20.80;44.30
37886;DHT22;23726;52.520;13.434;2022-12-05T15:04:45;20.80;44.30
37886;DHT22;23726;52.520;13.434;2022-12-05T15:07:20;20.80;44.50
37886;DHT22;23726;52.520;13.434;2022-12-05T15:14:55;20.80;44.60
37886;DHT22;23726;52.520;13.434;2022-12-05T15:17:26;20.80;44.70
37886;DHT22;23726;52.520;13.434;2022-12-05T15:26:22;20.80;44.90
37886;DHT22;23726;52.520;13.434;2022-12-05T15:29:11;20.80;45.10
37886;DHT22;23726;52.520;13.434;2022-12-05T15:37:23;20.80;45.30
37886;DHT22;23726;52.520;13.434;2022-12-05T15:39:56;20.80;45.20
37886;DHT22;23726;52.520;13.434;2022-12-05T15:42:35;20.70;45.30
37886;DHT22;23726;52.520;13.434;2022-12-05T15:47:40;20.80;45.40
37886;DHT22;23726;52.520;13.434;2022-12-05T15:50:12;20.80;45.30
37886;DHT22;23726;52.520;13.434;2022-12-05T15:58:26;20.80;45.30
37886;DHT22;23726;52.520;13.434;2022-12-05T16:01:16;20.80;45.30
37886;DHT22;23726;52.520;13.434;2022-12-05T16:03:58;20.80;45.20
37886;DHT22;23726;52.520;13.434;2022-12-05T16:08:53;20.80;44.90
37886;DHT22;23726;52.520;13.434;2022-12-05T16:11:20;20.80;44.80
37886;DHT22;23726;52.520;13.434;2022-12-05T16:13:53;20.80;44.70
37886;DHT22;23726;52.520;13.434;2022-12-05T16:16:23;20.80;44.80
37886;DHT22;23726;52.520;13.434;2022-12-05T16:18:57;20.80;44.80
37886;DHT22;23726;52.520;13.434;2022-12-05T16:24:06;20.80;44.40
37886;DHT22;23726;52.520;13.434;2022-12-05T16:26:37;20.80;44.50
37886;DHT22;23726;52.520;13.434;2022-12-05T16:29:03;20.80;44.50
37886;DHT22;23726;52.520;13.434;2022-12-05T16:31:29;20.80;44.30
37886;DHT22;23726;52.520;13.434;2022-12-05T16:34:06;20.70;44.40
37886;DHT22;23726;52.520;13.434;2022-12-05T16:36:33;20.70;44.50
37886;DHT22;23726;52.520;13.434;2022-12-05T16:39:04;20.70;44.40
37886;DHT22;23726;52.520;13.434;2022-12-05T16:41:35;20.80;44.40
37886;DHT22;23726;52.520;13.434;2022-12-05T16:44:01;20.80;44.30
37886;DHT22;23726;52.520;13.434;2022-12-05T16:49:31;20.80;44.50
37886;DHT22;23726;52.520;13.434;2022-12-05T16:54:32;20.80;44.50
37886;DHT22;23726;52.520;13.434;2022-12-05T16:56:59;20.80;45.00
37886;DHT22;23726;52.520;13.434;2022-12-05T16:59:36;20.80;44.60
37886;DHT22;23726;52.520;13.434;2022-12-05T17:02:06;20.90;44.60
37886;DHT22;23726;52.520;13.434;2022-12-05T17:04:34;20.90;44.60
37886;DHT22;23726;52.520;13.434;2022-12-05T17:07:00;20.90;44.70
37886;DHT22;23726;52.520;13.434;2022-12-05T17:09:26;20.90;44.80
37886;DHT22;23726;52.520;13.434;2022-12-05T17:11:54;20.90;44.70
37886;DHT22;23726;52.520;13.434;2022-12-05T17:14:23;20.90;44.80
37886;DHT22;23726;52.520;13.434;2022-12-05T17:16:48;20.90;45.40
37886;DHT22;23726;52.520;13.434;2022-12-05T17:19:14;20.90;44.80
37886;DHT22;23726;52.520;13.434;2022-12-05T17:21:40;20.90;44.80
37886;DHT22;23726;52.520;13.434;2022-12-05T17:24:25;20.90;44.90
37886;DHT22;23726;52.520;13.434;2022-12-05T17:26:52;20.90;44.90
37886;DHT22;23726;52.520;13.434;2022-12-05T17:29:18;20.90;45.00
37886;DHT22;23726;52.520;13.434;2022-12-05T17:31:44;20.90;44.90
37886;DHT22;23726;52.520;13.434;2022-12-05T17:34:13;20.90;45.00
37886;DHT22;23726;52.520;13.434;2022-12-05T17:36:40;20.90;45.10
37886;DHT22;23726;52.520;13.434;2022-12-05T17:39:06;20.90;45.00
37886;DHT22;23726;52.520;13.434;2022-12-05T17:41:33;20.90;45.10
37886;DHT22;23726;52.520;13.434;2022-12-05T17:43:58;20.90;45.10
37886;DHT22;23726;52.520;13.434;2022-12-05T17:46:24;20.90;45.20
37886;DHT22;23726;52.520;13.434;2022-12-05T17:48:50;21.00;45.30
37886;DHT22;23726;52.520;13.434;2022-12-05T17:51:17;20.90;45.70
37886;DHT22;23726;52.520;13.434;2022-12-05T17:53:43;21.00;45.30
37886;DHT22;23726;52.520;13.434;2022-12-05T17:56:11;21.00;45.30
37886;DHT22;23726;52.520;13.434;2022-12-05T17:58:36;20.90;45.30
37886;DHT22;23726;52.520;13.434;2022-12-05T18:01:02;21.00;45.40
37886;DHT22;23726;52.520;13.434;2022-12-05T18:03:30;21.00;45.40
37886;DHT22;23726;52.520;13.434;2022-12-05T18:05:56;21.00;45.20
37886;DHT22;23726;52.520;13.434;2022-12-05T18:08:22;21.00;45.30
37886;DHT22;23726;52.520;13.434;2022-12-05T18:10:49;21.00;45.40
37886;DHT22;23726;52.520;13.434;2022-12-05T18:13:16;20.90;45.30
37886;DHT22;23726;52.520;13.434;2022-12-05T18:15:42;20.90;45.40
37886;DHT22;23726;52.520;13.434;2022-12-05T18:18:13;20.90;45.30
37886;DHT22;23726;52.520;13.434;2022-12-05T18:20:39;20.90;45.50
37886;DHT22;23726;52.520;13.434;2022-12-05T18:23:05;20.90;45.50
37886;DHT22;23726;52.520;13.434;2022-12-05T18:25:30;20.90;45.50